Time;durP1;ratioP1;P1;durP2;ratioP2;P2;SDS_P1;SDS_P2;PMS_P1;PMS_P2;Temp;Humidity;BMP_temperature;BMP_pressure;BME280_temperature;BME280_humidity;BME280_pressure;Samples;Min_cycle;Max_cycle;Signal;HPM_P1;HPM_P2
2023/10/14 00:01:34;;;;;;;12.30;6.32;;;;;;;17.93;83.62;99094.13;6099380;23;20024;-92
2023/10/14 00:04:04;;;;;;;15.18;5.80;;;;;;;17.94;83.58;99082.38;6072285;23;20339;-91
2023/10/14 00:06:38;;;;;;;12.90;5.93;;;;;;;17.93;83.96;99079.88;6097133;23;20017;-91
2023/10/14 00:09:11;;;;;;;10.70;6.03;;;;;;;17.92;84.00;99072.88;6097343;23;20126;-91
2023/10/14 00:11:54;;;;;;;10.10;5.72;;;;;;;17.91;83.97;99081.94;6098670;23;20026;-92
2023/10/14 00:14:23;;;;;;;10.77;5.47;;;;;;;17.92;84.50;99086.28;6099277;23;20025;-92
2023/10/14 00:16:51;;;;;;;6.50;4.70;;;;;;;17.93;84.22;99090.63;6073705;23;20017;-92
2023/10/14 00:19:19;;;;;;;7.40;5.38;;;;;;;17.91;84.07;99085.47;6073184;23;20076;-92
2023/10/14 00:21:48;;;;;;;8.77;5.32;;;;;;;17.93;84.10;99087.94;6097561;23;20100;-92
2023/10/14 00:24:26;;;;;;;8.20;5.20;;;;;;;17.92;83.93;99084.44;6072561;23;20028;-92
2023/10/14 00:26:54;;;;;;;9.27;5.00;;;;;;;17.90;83.97;99074.91;6098701;23;20037;-92
2023/10/14 00:29:21;;;;;;;7.72;5.22;;;;;;;17.93;84.38;99085.25;6073262;23;20025;-92
2023/10/14 00:31:52;;;;;;;10.27;4.70;;;;;;;17.88;85.20;99069.75;6097342;23;20045;-92
2023/10/14 00:34:22;;;;;;;11.85;5.45;;;;;;;17.92;84.70;99068.31;6073262;23;20014;-92
2023/10/14 00:36:50;;;;;;;9.60;5.47;;;;;;;17.90;84.83;99064.19;6122136;23;20021;-93
2023/10/14 00:39:17;;;;;;;9.73;5.75;;;;;;;17.92;85.11;99072.88;6097707;23;20029;-93
2023/10/14 00:41:50;;;;;;;9.48;6.13;;;;;;;17.90;85.29;99069.56;6097350;23;20017;-92
2023/10/14 00:44:18;;;;;;;10.75;6.20;;;;;;;17.90;85.09;99056.13;6073669;23;20017;-92
2023/10/14 00:46:51;;;;;;;13.45;5.85;;;;;;;17.92;85.18;99062.13;6097474;23;20021;-92
2023/10/14 00:49:19;;;;;;;;;;;;;;;17.68;86.41;99050.00;6074832;23;20021;-92
2023/10/14 00:51:51;;;;;;;10.85;6.53;;;;;;;17.81;85.16;99055.50;6073707;23;19923;-92
2023/10/14 00:54:40;;;;;;;10.38;5.90;;;;;;;17.85;84.95;99047.84;6073007;23;20024;-93
2023/10/14 00:59:47;;;;;;;10.95;5.30;;;;;;;17.89;84.68;99039.19;6099058;23;20045;-92
2023/10/14 01:02:18;;;;;;;11.18;5.70;;;;;;;17.94;84.74;99038.59;6095979;23;20013;-91
2023/10/14 01:04:53;;;;;;;12.82;5.15;;;;;;;17.89;84.90;99041.88;6098548;23;20101;-93
2023/10/14 01:07:21;;;;;;;12.40;6.45;;;;;;;17.94;84.90;99033.22;6073827;23;20405;-92
2023/10/14 01:09:52;;;;;;;12.77;5.43;;;;;;;17.95;84.53;99022.25;6073942;23;20044;-93
2023/10/14 01:14:53;;;;;;;12.85;6.55;;;;;;;18.04;83.60;99014.84;6096083;23;20018;-91
2023/10/14 01:19:54;;;;;;;10.77;5.50;;;;;;;18.15;82.56;99010.72;6096913;23;20010;-91
2023/10/14 01:22:21;;;;;;;6.65;4.85;;;;;;;18.18;82.29;99008.44;6071993;23;20032;-91
2023/10/14 01:24:48;;;;;;;8.30;5.10;;;;;;;18.28;81.23;99005.34;6096798;23;20022;-92
2023/10/14 01:27:16;;;;;;;9.30;5.55;;;;;;;18.33;80.92;99010.09;6120759;23;20021;-93
2023/10/14 01:29:44;;;;;;;14.93;6.55;;;;;;;18.38;80.20;99010.31;6072521;23;20021;-91
2023/10/14 01:32:39;;;;;;;17.02;6.93;;;;;;;18.41;78.79;98999.16;6071652;23;20124;-93
2023/10/14 01:35:20;;;;;;;12.32;5.32;;;;;;;18.54;78.78;98999.13;6073837;23;20033;-92
2023/10/14 01:37:47;;;;;;;10.75;5.63;;;;;;;18.61;78.05;98991.06;6121778;23;20025;-91
2023/10/14 01:40:24;;;;;;;9.98;5.43;;;;;;;18.69;77.87;98990.03;6096271;23;20021;-91
2023/10/14 01:42:58;;;;;;;11.00;5.75;;;;;;;18.73;77.35;98988.59;6072538;23;20025;-92
2023/10/14 01:45:31;;;;;;;11.93;5.10;;;;;;;18.79;76.07;98975.16;6072774;23;20022;-93
2023/10/14 01:50:46;;;;;;;12.05;5.72;;;;;;;18.85;75.47;98973.47;6097226;23;20021;-91
2023/10/14 01:53:17;;;;;;;13.82;5.90;;;;;;;18.94;74.95;98979.47;6072851;23;20044;-88
2023/10/14 01:55:45;;;;;;;13.90;5.72;;;;;;;18.99;73.36;98995.81;6122148;23;20024;-89
2023/10/14 01:58:21;;;;;;;11.68;5.95;;;;;;;19.05;73.52;98985.00;6086501;23;20334;-90
2023/10/14 02:00:53;;;;;;;10.32;6.20;;;;;;;19.08;73.57;98981.06;6097479;23;20108;-91
2023/10/14 02:03:21;;;;;;;10.30;5.47;;;;;;;19.10;73.78;98987.06;6098815;23;20028;-90
2023/10/14 02:05:51;;;;;;;11.75;6.03;;;;;;;19.13;73.60;98986.63;6121111;23;20025;-88
2023/10/14 02:08:23;;;;;;;10.57;5.75;;;;;;;19.18;72.84;98994.09;6073539;23;20018;-91
2023/10/14 02:10:50;;;;;;;11.55;5.35;;;;;;;19.16;72.93;98988.06;6074421;23;20461;-91
2023/10/14 02:13:19;;;;;;;11.98;7.00;;;;;;;19.23;72.27;98995.13;6071684;23;20027;-92
2023/10/14 02:15:46;;;;;;;10.52;5.90;;;;;;;19.22;72.70;98971.09;6120291;23;20425;-90
2023/10/14 02:18:22;;;;;;;12.65;6.35;;;;;;;19.22;72.25;98998.84;6094290;23;20491;-91
2023/10/14 02:21:05;;;;;;;13.93;6.63;;;;;;;19.25;72.52;98981.44;6072503;23;20037;-90
2023/10/14 02:23:45;;;;;;;12.10;6.47;;;;;;;19.28;72.10;98981.00;6073860;23;20020;-90
2023/10/14 02:26:33;;;;;;;15.43;6.45;;;;;;;19.30;71.83;98949.31;6075338;23;20093;-92
2023/10/14 02:29:00;;;;;;;17.13;6.38;;;;;;;19.34;71.79;98963.19;6093824;23;20097;-88
2023/10/14 02:33:55;;;;;;;11.85;6.35;;;;;;;19.36;71.41;98975.41;6093811;23;20025;-88
2023/10/14 02:36:28;;;;;;;10.27;5.57;;;;;;;19.35;71.51;98968.34;6118270;23;20085;-90
2023/10/14 02:38:57;;;;;;;17.85;5.88;;;;;;;19.37;71.13;98971.66;6071402;23;20021;-89
2023/10/14 02:41:32;;;;;;;8.88;4.88;;;;;;;19.39;71.14;98974.16;6094212;23;20155;-89
2023/10/14 02:46:42;;;;;;;12.43;6.13;;;;;;;19.42;70.81;98982.59;6118351;23;20081;-89
2023/10/14 02:49:13;;;;;;;11.63;5.45;;;;;;;19.42;71.26;98981.78;6095245;23;20017;-90
2023/10/14 02:51:45;;;;;;;11.10;6.07;;;;;;;19.40;71.02;98978.47;6047506;23;20722;-90
2023/10/14 02:54:15;;;;;;;9.77;5.50;;;;;;;19.43;71.05;98986.94;6091500;23;20018;-90
2023/10/14 02:59:19;;;;;;;9.60;6.20;;;;;;;19.41;71.17;98990.88;6094920;23;20356;-89
2023/10/14 03:04:41;;;;;;;11.93;6.25;;;;;;;19.44;71.05;98993.19;6096781;23;20230;-88
2023/10/14 03:07:09;;;;;;;8.93;6.10;;;;;;;19.45;71.24;98987.56;6071037;23;20036;-88
2023/10/14 03:09:36;;;;;;;11.75;6.00;;;;;;;19.46;71.17;98988.38;6118551;23;20017;-89
2023/10/14 03:12:05;;;;;;;11.73;6.60;;;;;;;19.45;71.03;98982.19;6092411;23;20096;-89
2023/10/14 03:14:38;;;;;;;15.15;7.03;;;;;;;19.45;71.07;98976.78;6094476;23;20699;-88
2023/10/14 03:17:07;;;;;;;15.52;6.90;;;;;;;19.46;71.17;98975.78;6094271;23;20025;-89
2023/10/14 03:19:34;;;;;;;11.73;6.32;;;;;;;19.45;71.35;98967.91;6092722;23;20021;-90
2023/10/14 03:22:00;;;;;;;12.63;6.63;;;;;;;19.44;71.49;98959.00;6093074;23;20033;-89
2023/10/14 03:24:31;;;;;;;12.25;6.07;;;;;;;19.47;71.49;98961.25;6093782;23;20025;-90
2023/10/14 03:27:04;;;;;;;9.38;5.93;;;;;;;19.49;71.26;98963.75;6070882;23;20028;-89
2023/10/14 03:29:31;;;;;;;9.88;5.93;;;;;;;19.47;71.21;98968.50;6118744;23;20020;-89
2023/10/14 03:31:58;;;;;;;15.98;5.97;;;;;;;19.47;71.19;98968.50;6117654;23;20030;-89
2023/10/14 03:34:41;;;;;;;9.18;5.38;;;;;;;19.44;70.83;98977.84;6091775;23;20497;-88
2023/10/14 03:37:26;;;;;;;10.50;6.20;;;;;;;19.50;71.41;99033.53;6093025;23;22161;-88
2023/10/14 03:43:08;;;;;;;18.60;8.45;;;;;;;19.40;77.05;99041.22;6007909;23;20115;-88
2023/10/14 03:45:46;;;;;;;17.98;8.45;;;;;;;19.35;78.52;99043.72;5998388;23;20587;-87
2023/10/14 03:48:13;;;;;;;13.52;7.82;;;;;;;19.31;79.58;99037.13;6014112;23;20017;-85
2023/10/14 03:50:40;;;;;;;20.35;8.38;;;;;;;19.26;80.53;99032.38;6093620;23;20084;-86
2023/10/14 03:53:07;;;;;;;16.67;7.72;;;;;;;19.23;81.32;99024.72;6092215;23;20040;-85
2023/10/14 03:55:34;;;;;;;17.58;8.38;;;;;;;19.19;82.06;99031.56;6092800;23;21372;-86
2023/10/14 03:58:08;;;;;;;18.17;8.80;;;;;;;19.15;83.22;99049.16;6117477;23;20033;-86
2023/10/14 04:00:38;;;;;;;13.93;7.75;;;;;;;19.12;83.28;99052.28;6092430;23;20151;-85
2023/10/14 04:03:06;;;;;;;14.55;8.70;;;;;;;19.08;84.17;99062.66;6093592;23;20584;-86
2023/10/14 04:05:37;;;;;;;15.32;7.43;;;;;;;19.05;83.94;99064.91;6092872;23;20022;-85
2023/10/14 04:08:05;;;;;;;11.57;6.28;;;;;;;19.03;84.03;99070.50;6092599;23;20021;-86
2023/10/14 04:10:37;;;;;;;11.23;5.45;;;;;;;18.97;83.91;99067.81;6093585;23;20113;-86
2023/10/14 04:13:12;;;;;;;9.90;5.40;;;;;;;18.95;83.67;99067.19;6093031;23;20481;-86
2023/10/14 04:15:50;;;;;;;9.95;5.18;;;;;;;18.92;84.11;99062.25;6118694;23;20025;-87
2023/10/14 04:18:24;;;;;;;7.72;5.38;;;;;;;18.90;84.15;99070.50;6070856;23;20055;-88
2023/10/14 04:21:11;;;;;;;11.32;5.63;;;;;;;18.89;84.37;99065.34;6070409;23;20458;-88
2023/10/14 04:23:59;;;;;;;13.05;6.00;;;;;;;18.86;85.17;99053.97;6092696;23;20072;-87
2023/10/14 04:26:25;;;;;;;11.45;5.20;;;;;;;18.85;85.64;99051.47;6096495;23;20048;-86
2023/10/14 04:28:58;;;;;;;9.90;5.07;;;;;;;18.80;85.30;99054.81;6092342;23;20116;-89
2023/10/14 04:31:40;;;;;;;10.10;5.75;;;;;;;18.80;85.56;99045.91;6094969;23;20017;-87
2023/10/14 04:34:10;;;;;;;8.98;5.10;;;;;;;18.76;85.26;99058.94;6095716;23;20037;-89
2023/10/14 04:36:37;;;;;;;13.32;5.10;;;;;;;18.78;84.92;99051.50;6092371;23;20017;-87
2023/10/14 04:39:14;;;;;;;6.03;3.95;;;;;;;18.77;84.52;99063.28;6116691;23;20136;-89
2023/10/14 04:44:37;;;;;;;11.23;4.50;;;;;;;18.73;84.50;99066.59;6121767;23;20032;-89
2023/10/14 04:47:04;;;;;;;8.23;4.47;;;;;;;18.72;84.35;99067.59;6094518;23;20036;-87
2023/10/14 04:49:38;;;;;;;7.03;3.70;;;;;;;18.69;84.42;99070.72;6092271;23;20029;-88
2023/10/14 04:52:05;;;;;;;;;;;;;;;18.49;86.51;99084.13;6071399;23;20036;-86
2023/10/14 04:54:52;;;;;;;10.98;4.20;;;;;;;18.61;84.48;99079.81;6115908;23;19927;-87
2023/10/14 04:57:20;;;;;;;6.38;3.42;;;;;;;18.62;84.21;99070.69;6096267;23;20017;-86
2023/10/14 04:59:53;;;;;;;8.63;3.70;;;;;;;18.64;84.04;99079.38;6094315;23;20032;-88
2023/10/14 05:02:21;;;;;;;8.73;3.30;;;;;;;18.61;83.91;99077.13;6093043;23;20112;-86
2023/10/14 05:04:51;;;;;;;10.10;3.53;;;;;;;18.43;84.50;99088.47;6093624;23;20025;-88
2023/10/14 05:07:19;;;;;;;8.07;3.63;;;;;;;18.55;84.22;99100.28;6068648;23;20017;-87
2023/10/14 05:09:56;;;;;;;9.38;3.78;;;;;;;18.54;84.21;99104.00;6045838;23;20022;-88
2023/10/14 05:12:26;;;;;;;7.47;3.40;;;;;;;18.55;83.87;99100.28;6066784;23;20126;-87
2023/10/14 05:14:55;;;;;;;7.78;3.28;;;;;;;18.57;83.58;99095.53;6093380;23;20037;-86
2023/10/14 05:17:26;;;;;;;9.18;3.67;;;;;;;18.57;83.98;99105.44;6116178;23;20020;-88
2023/10/14 05:19:58;;;;;;;13.27;3.88;;;;;;;18.55;83.98;99096.78;6068293;23;20392;-88
2023/10/14 05:22:37;;;;;;;6.63;3.22;;;;;;;18.54;83.42;99095.94;6092627;23;20034;-86
2023/10/14 05:25:15;;;;;;;10.15;2.95;;;;;;;18.53;83.89;99091.59;6070375;23;20025;-87
2023/10/14 05:27:46;;;;;;;11.20;3.10;;;;;;;18.55;83.65;99096.78;6069753;23;20036;-87
2023/10/14 05:30:21;;;;;;;8.35;3.35;;;;;;;18.49;83.66;99097.56;6092677;23;20021;-87
2023/10/14 05:32:51;;;;;;;8.68;3.08;;;;;;;18.48;83.63;99099.44;6093115;23;20536;-87
2023/10/14 05:35:22;;;;;;;10.88;3.08;;;;;;;18.51;83.79;99108.97;6090365;23;20690;-87
2023/10/14 05:37:50;;;;;;;8.57;3.65;;;;;;;18.48;83.83;99104.81;6067956;23;20021;-87
2023/10/14 05:40:17;;;;;;;9.48;3.13;;;;;;;18.49;83.93;99106.47;6093256;23;20080;-87
2023/10/14 05:42:45;;;;;;;9.93;3.25;;;;;;;18.50;84.10;99116.22;6117163;23;20053;-86
2023/10/14 05:45:13;;;;;;;6.70;2.95;;;;;;;18.51;84.16;99119.72;6068353;23;20017;-87
2023/10/14 05:47:42;;;;;;;5.72;2.88;;;;;;;18.50;84.13;99132.34;6115763;23;20029;-86
2023/10/14 05:50:14;;;;;;;9.38;3.72;;;;;;;18.50;84.34;99136.88;6116784;23;20018;-87
2023/10/14 05:52:44;;;;;;;9.48;3.28;;;;;;;18.43;84.37;99126.13;6141299;23;20547;-88
2023/10/14 05:55:11;;;;;;;5.35;2.92;;;;;;;18.44;84.60;99138.50;6091321;23;20021;-88
2023/10/14 05:57:41;;;;;;;10.93;3.22;;;;;;;18.44;84.74;99157.31;6092026;23;20101;-86
2023/10/14 06:00:20;;;;;;;7.75;2.45;;;;;;;18.43;84.73;99156.50;6093834;23;20358;-87
2023/10/14 06:02:49;;;;;;;7.28;3.15;;;;;;;18.45;84.80;99169.75;6095139;23;20030;-87
2023/10/14 06:05:16;;;;;;;8.05;2.78;;;;;;;18.44;84.87;99177.00;6114769;23;20646;-88
2023/10/14 06:07:47;;;;;;;11.00;3.30;;;;;;;18.43;85.04;99186.06;6092033;23;20025;-87
2023/10/14 06:10:20;;;;;;;5.95;2.65;;;;;;;18.46;85.10;99178.66;6093082;23;20284;-87
2023/10/14 06:12:50;;;;;;;8.00;3.10;;;;;;;18.44;84.93;99185.06;6047094;23;20084;-87
2023/10/14 06:15:17;;;;;;;14.73;3.03;;;;;;;18.45;85.10;99191.25;6094229;23;20028;-89
2023/10/14 06:17:45;;;;;;;8.57;2.60;;;;;;;18.43;85.14;99180.69;6093839;23;20021;-89
2023/10/14 06:20:16;;;;;;;11.85;2.70;;;;;;;18.44;85.40;99200.34;6070072;23;20025;-87
2023/10/14 06:22:46;;;;;;;5.65;2.78;;;;;;;18.43;85.41;99196.81;6118641;23;20020;-90
2023/10/14 06:25:16;;;;;;;6.43;3.03;;;;;;;18.48;85.38;99195.41;6091769;23;20022;-90
2023/10/14 06:27:45;;;;;;;7.28;2.28;;;;;;;18.46;85.71;99211.72;6094399;23;20017;-89
2023/10/14 06:30:20;;;;;;;11.13;2.80;;;;;;;18.43;85.21;99212.97;6093359;23;20030;-89
2023/10/14 06:32:52;;;;;;;5.88;2.88;;;;;;;18.47;85.44;99213.41;6095513;23;20028;-89
2023/10/14 06:35:20;;;;;;;8.82;2.63;;;;;;;18.47;85.56;99205.34;6117370;23;20022;-87
2023/10/14 06:37:47;;;;;;;6.18;2.42;;;;;;;18.49;85.08;99202.44;6092802;23;20057;-86
2023/10/14 06:40:14;;;;;;;5.57;2.28;;;;;;;18.46;85.33;99218.97;6116829;23;20077;-86
2023/10/14 06:42:43;;;;;;;5.80;2.90;;;;;;;18.46;85.49;99206.34;6117115;23;20021;-86
2023/10/14 06:45:17;;;;;;;5.30;2.20;;;;;;;18.49;85.58;99221.25;6117126;23;20096;-87
2023/10/14 06:47:50;;;;;;;;;;;;;;;18.31;87.25;99219.13;6117661;23;20442;-86
2023/10/14 06:50:25;;;;;;;6.40;2.20;;;;;;;18.45;85.78;99223.53;6092937;23;20336;-86
2023/10/14 06:52:58;;;;;;;6.13;2.10;;;;;;;18.50;86.02;99225.63;6071065;23;20013;-85
2023/10/14 06:55:37;;;;;;;5.15;2.20;;;;;;;18.51;86.02;99238.84;6090713;23;20017;-86
2023/10/14 06:58:06;;;;;;;6.05;2.08;;;;;;;18.51;86.21;99238.00;6092345;23;20349;-85
2023/10/14 07:00:33;;;;;;;4.32;2.13;;;;;;;18.49;86.07;99243.56;6094332;23;20021;-86
2023/10/14 07:03:10;;;;;;;9.30;2.58;;;;;;;18.54;86.15;99253.72;6080366;23;20113;-85
2023/10/14 07:05:43;;;;;;;3.63;2.13;;;;;;;18.52;85.92;99259.31;6119091;23;20109;-84
2023/10/14 07:08:11;;;;;;;6.70;2.47;;;;;;;18.53;86.02;99266.34;6070386;23;20398;-85
2023/10/14 07:10:38;;;;;;;8.77;1.98;;;;;;;18.54;86.16;99267.19;6046765;23;20021;-86
2023/10/14 07:13:05;;;;;;;7.15;2.03;;;;;;;18.56;86.15;99273.19;6118409;23;20041;-85
2023/10/14 07:15:36;;;;;;;6.43;2.45;;;;;;;18.55;86.23;99274.22;6093966;23;20076;-85
2023/10/14 07:18:03;;;;;;;4.32;2.15;;;;;;;18.56;86.44;99281.25;6093602;23;20021;-85
2023/10/14 07:20:30;;;;;;;4.55;2.03;;;;;;;18.57;86.68;99288.28;6069687;23;20042;-84
2023/10/14 07:22:58;;;;;;;4.82;2.70;;;;;;;18.56;86.73;99294.69;6093761;23;20052;-85
2023/10/14 07:25:25;;;;;;;6.82;2.85;;;;;;;18.56;86.57;99308.97;6068647;23;20013;-85
2023/10/14 07:27:52;;;;;;;4.97;2.40;;;;;;;18.56;87.23;99311.66;6084196;23;20029;-84
2023/10/14 07:30:22;;;;;;;8.82;2.47;;;;;;;18.56;88.13;99310.84;6093952;23;20473;-84
2023/10/14 07:32:49;;;;;;;11.13;2.70;;;;;;;18.55;88.67;99314.56;6116225;23;20460;-85
2023/10/14 07:35:17;;;;;;;6.38;3.45;;;;;;;18.51;88.96;99322.19;6092907;23;20072;-86
2023/10/14 07:37:45;;;;;;;8.30;3.00;;;;;;;18.51;89.47;99314.13;6093831;23;20017;-85
2023/10/14 07:40:24;;;;;;;4.20;2.53;;;;;;;18.52;89.48;99333.75;6118380;23;20028;-85
2023/10/14 07:42:59;;;;;;;8.55;2.35;;;;;;;18.50;90.21;99335.84;6096561;23;20029;-84
2023/10/14 07:45:33;;;;;;;6.75;2.03;;;;;;;18.50;90.30;99336.66;6094819;23;20039;-83
2023/10/14 07:48:10;;;;;;;4.83;2.33;;;;;;;18.50;90.54;99344.72;6117728;23;20026;-85
2023/10/14 07:50:41;;;;;;;6.30;2.35;;;;;;;18.50;90.54;99346.59;6117861;23;20047;-84
2023/10/14 07:53:12;;;;;;;7.38;2.30;;;;;;;18.49;90.62;99336.84;6092895;23;20103;-84
2023/10/14 07:55:42;;;;;;;4.88;2.00;;;;;;;18.50;90.48;99351.97;6119238;23;20664;-85
2023/10/14 07:58:13;;;;;;;8.35;2.80;;;;;;;18.49;90.23;99336.84;6118852;23;20048;-85
2023/10/14 08:00:49;;;;;;;5.10;2.35;;;;;;;18.44;90.41;99342.81;6092103;23;20021;-85
2023/10/14 08:03:20;;;;;;;4.53;1.80;;;;;;;18.46;90.53;99348.84;6094399;23;20030;-85
2023/10/14 08:05:49;;;;;;;6.63;2.17;;;;;;;18.44;90.23;99362.50;6093821;23;20044;-85
2023/10/14 08:08:17;;;;;;;4.18;1.75;;;;;;;18.44;90.31;99359.81;6068634;23;20021;-85
2023/10/14 08:10:45;;;;;;;4.70;1.83;;;;;;;18.44;90.64;99367.00;6117449;23;20057;-84
2023/10/14 08:13:13;;;;;;;4.22;1.63;;;;;;;18.44;90.21;99367.00;6142792;23;20032;-85
2023/10/14 08:15:40;;;;;;;4.93;1.63;;;;;;;18.43;90.63;99371.56;6117238;23;20025;-84
2023/10/14 08:18:07;;;;;;;4.72;1.55;;;;;;;18.43;90.70;99376.13;6093092;23;20543;-84
2023/10/14 08:20:35;;;;;;;3.83;1.80;;;;;;;18.41;90.61;99383.53;6093284;23;20449;-84
2023/10/14 08:23:09;;;;;;;4.03;2.00;;;;;;;18.41;90.75;99383.53;6093879;23;20033;-85
2023/10/14 08:25:37;;;;;;;2.90;1.60;;;;;;;18.40;90.67;99404.22;6068131;23;20018;-83
2023/10/14 08:28:05;;;;;;;5.38;1.38;;;;;;;18.38;90.77;99414.34;6140636;23;20488;-84
2023/10/14 08:30:34;;;;;;;4.47;1.40;;;;;;;18.37;91.23;99419.94;6068475;23;20033;-85
2023/10/14 08:33:03;;;;;;;3.40;1.17;;;;;;;18.34;91.62;99418.47;6117257;23;20022;-85
2023/10/14 08:35:30;;;;;;;8.27;4.05;;;;;;;18.32;91.48;99433.09;6118285;23;20072;-85
2023/10/14 08:37:57;;;;;;;3.83;1.75;;;;;;;18.30;91.12;99429.81;6068418;23;20115;-84
2023/10/14 08:40:29;;;;;;;2.75;1.40;;;;;;;18.30;91.62;99424.44;6115234;23;20028;-85
2023/10/14 08:43:05;;;;;;;2.33;1.40;;;;;;;18.25;91.49;99435.75;6118825;23;20029;-85
2023/10/14 08:45:41;;;;;;;1.90;1.00;;;;;;;18.07;91.57;99448.84;6141139;23;20662;-84
2023/10/14 08:48:08;;;;;;;1.55;1.02;;;;;;;18.04;89.73;99447.38;6092042;23;20509;-83
2023/10/14 08:50:36;;;;;;;0.88;0.50;;;;;;;17.80;88.66;99432.47;6117009;23;20091;-83
2023/10/14 08:53:07;;;;;;;2.05;0.70;;;;;;;17.72;88.10;99441.47;6091576;23;20029;-83
2023/10/14 08:55:34;;;;;;;0.65;0.60;;;;;;;17.69;87.58;99451.75;6091976;23;20055;-83
2023/10/14 08:58:02;;;;;;;3.95;1.70;;;;;;;17.72;88.08;99457.56;6115996;23;20574;-83
2023/10/14 09:00:29;;;;;;;1.48;1.00;;;;;;;17.69;87.52;99470.56;6115979;23;20036;-83
2023/10/14 09:02:57;;;;;;;2.80;1.70;;;;;;;17.74;87.57;99463.59;6115799;23;20084;-82
2023/10/14 09:05:26;;;;;;;3.35;0.85;;;;;;;17.78;87.60;99466.72;6114514;23;20025;-82
2023/10/14 09:07:55;;;;;;;5.38;0.80;;;;;;;17.81;86.93;99471.75;6117403;23;20118;-83
2023/10/14 09:10:24;;;;;;;2.30;0.55;;;;;;;17.86;88.03;99469.31;6093358;23;20021;-83
2023/10/14 09:12:57;;;;;;;0.55;0.55;;;;;;;17.89;88.79;99477.00;6117807;23;20109;-84
2023/10/14 09:15:28;;;;;;;0.60;0.43;;;;;;;17.93;89.39;99472.88;6094164;23;20632;-84
2023/10/14 09:17:56;;;;;;;1.73;0.60;;;;;;;17.96;89.67;99483.25;6118791;23;20105;-84
2023/10/14 09:20:35;;;;;;;3.22;1.35;;;;;;;17.92;88.49;99481.16;6093610;23;20394;-85
2023/10/14 09:23:25;;;;;;;1.20;0.90;;;;;;;17.92;90.71;99487.34;6092692;23;20052;-83
2023/10/14 09:25:55;;;;;;;0.73;0.50;;;;;;;17.99;87.57;99487.44;6092161;23;20109;-84
2023/10/14 09:28:28;;;;;;;1.40;0.70;;;;;;;17.96;84.72;99485.09;6115874;23;20355;-84
2023/10/14 09:30:57;;;;;;;2.08;0.40;;;;;;;17.95;84.32;99486.13;6094134;23;20338;-84
2023/10/14 09:33:28;;;;;;;1.05;0.40;;;;;;;17.94;84.60;99481.78;6093635;23;20030;-84
2023/10/14 09:36:18;;;;;;;3.42;0.50;;;;;;;17.90;85.83;99485.88;6118474;23;20018;-84
2023/10/14 09:38:51;;;;;;;3.40;1.80;;;;;;;17.96;86.52;99483.25;6140654;23;20014;-83
2023/10/14 09:41:18;;;;;;;2.95;1.60;;;;;;;17.96;85.50;99477.91;6128259;23;20097;-83
2023/10/14 09:43:47;;;;;;;0.65;0.60;;;;;;;17.96;85.10;99479.72;6119340;23;20088;-85
2023/10/14 09:46:19;;;;;;;1.38;0.60;;;;;;;17.99;85.37;99482.06;6143204;23;20024;-83
2023/10/14 09:48:47;;;;;;;0.80;0.80;;;;;;;17.99;86.25;99496.31;6145590;23;20023;-84
2023/10/14 09:51:17;;;;;;;1.70;0.70;;;;;;;18.01;87.10;99482.66;6144815;23;20053;-83
2023/10/14 09:53:48;;;;;;;2.80;0.68;;;;;;;18.03;87.36;99493.22;6120710;23;20635;-84
2023/10/14 09:56:16;;;;;;;0.45;0.40;;;;;;;18.04;87.87;99494.88;6072117;23;20025;-83
2023/10/14 09:58:55;;;;;;;2.72;0.60;;;;;;;18.05;88.79;99497.38;6101851;23;20029;-84
2023/10/14 10:01:24;;;;;;;0.88;0.40;;;;;;;18.08;89.42;99497.00;6119799;23;20032;-84
2023/10/14 10:03:57;;;;;;;1.35;0.40;;;;;;;18.08;89.59;99493.47;6144539;23;20083;-84
2023/10/14 10:06:35;;;;;;;0.32;0.30;;;;;;;18.09;89.41;99498.69;6144673;23;20028;-83
2023/10/14 10:09:05;;;;;;;1.13;0.50;;;;;;;18.12;87.29;99492.09;6146534;23;20026;-83
2023/10/14 10:11:33;;;;;;;2.53;0.50;;;;;;;18.13;86.19;99496.44;6144068;23;20093;-83
2023/10/14 10:14:00;;;;;;;0.40;0.40;;;;;;;18.15;87.20;99494.38;6120318;23;20033;-83
2023/10/14 10:16:34;;;;;;;0.93;0.50;;;;;;;18.19;87.62;99499.19;6120335;23;20573;-83
2023/10/14 10:19:01;;;;;;;0.55;0.52;;;;;;;18.18;85.23;99500.19;6145088;23;20021;-83
2023/10/14 10:21:30;;;;;;;1.95;0.77;;;;;;;18.19;85.77;99490.25;6120420;23;20100;-83
2023/10/14 10:24:17;;;;;;;0.55;0.55;;;;;;;18.11;86.10;99493.09;6145087;23;20041;-83
2023/10/14 10:26:57;;;;;;;2.78;0.60;;;;;;;18.13;86.68;99494.56;6072560;23;20083;-83
2023/10/14 10:29:24;;;;;;;1.17;0.73;;;;;;;18.22;88.04;99500.66;6120136;23;20124;-84
2023/10/14 10:32:09;;;;;;;3.10;1.08;;;;;;;18.13;87.60;99507.16;6145458;23;20018;-83
2023/10/14 10:35:05;;;;;;;0.75;0.70;;;;;;;18.12;89.05;99510.91;6095815;23;20382;-83
2023/10/14 10:37:43;;;;;;;8.07;5.32;;;;;;;18.08;85.75;99521.19;6146306;23;20100;-83
2023/10/14 10:40:11;;;;;;;6.43;4.25;;;;;;;18.09;84.77;99508.56;6144742;23;20029;-83
2023/10/14 10:42:57;;;;;;;0.40;0.40;;;;;;;17.89;80.38;99503.03;6121395;23;20545;-83
2023/10/14 10:45:32;;;;;;;4.60;2.67;;;;;;;17.95;81.61;99510.31;6096783;23;20108;-83
2023/10/14 10:48:03;;;;;;;3.33;2.60;;;;;;;17.94;83.16;99514.84;6097324;23;20084;-84
2023/10/14 10:50:36;;;;;;;2.88;1.92;;;;;;;17.95;83.66;99521.06;6097086;23;20017;-83
2023/10/14 10:53:10;;;;;;;3.90;1.67;;;;;;;17.96;84.11;99523.56;6143934;23;24698;-84
2023/10/14 10:55:41;;;;;;;1.20;0.88;;;;;;;17.91;83.23;99523.31;6119207;23;20021;-84
2023/10/14 10:58:12;;;;;;;1.85;1.20;;;;;;;17.96;83.32;99517.34;6119542;23;20101;-84
2023/10/14 11:00:45;;;;;;;2.50;1.73;;;;;;;17.97;83.29;99516.31;6118194;23;20438;-84
2023/10/14 11:03:16;;;;;;;1.10;0.60;;;;;;;18.00;83.43;99515.94;6116619;23;20087;-84
2023/10/14 11:05:47;;;;;;;1.63;0.93;;;;;;;17.96;82.41;99526.25;6120894;23;20024;-84
2023/10/14 11:08:16;;;;;;;2.05;0.65;;;;;;;17.99;82.68;99519.66;6093711;23;20389;-83
2023/10/14 11:10:45;;;;;;;8.57;4.30;;;;;;;18.00;82.66;99522.13;6069727;23;20398;-84
2023/10/14 11:13:13;;;;;;;3.65;1.50;;;;;;;17.99;82.54;99520.50;6047170;23;20353;-84
2023/10/14 11:15:43;;;;;;;15.38;7.38;;;;;;;18.00;83.02;99518.63;6117896;23;20115;-84
2023/10/14 11:18:10;;;;;;;4.13;2.08;;;;;;;18.00;83.25;99515.94;6119027;23;20092;-84
2023/10/14 11:20:49;;;;;;;3.70;2.78;;;;;;;17.97;80.50;99517.16;6094714;23;20036;-83
2023/10/14 11:23:17;;;;;;;4.72;1.90;;;;;;;17.96;79.57;99520.88;6085149;23;20568;-84
2023/10/14 11:25:46;;;;;;;1.70;1.60;;;;;;;17.96;78.33;99517.34;6094719;23;20018;-84
2023/10/14 11:28:17;;;;;;;2.67;1.20;;;;;;;17.96;78.37;99523.56;6095889;23;20121;-84
2023/10/14 11:30:45;;;;;;;2.58;0.80;;;;;;;17.96;78.02;99528.94;6097893;23;20105;-84
2023/10/14 11:33:13;;;;;;;1.85;1.00;;;;;;;17.99;78.03;99527.72;6097420;23;20093;-85
2023/10/14 11:35:40;;;;;;;1.15;0.70;;;;;;;18.00;78.26;99526.69;6098095;23;20049;-85
2023/10/14 11:38:08;;;;;;;1.90;0.63;;;;;;;18.01;76.54;99525.66;6097971;23;20021;-85
2023/10/14 11:40:36;;;;;;;4.18;1.00;;;;;;;18.05;77.06;99535.00;6122580;23;20048;-85
2023/10/14 11:43:07;;;;;;;2.20;0.98;;;;;;;18.04;76.54;99529.81;6097957;23;20026;-85
2023/10/14 11:45:36;;;;;;;2.10;0.90;;;;;;;18.04;76.09;99521.75;6146608;23;20028;-83
2023/10/14 11:48:03;;;;;;;3.53;0.80;;;;;;;18.01;76.15;99533.72;6145968;23;20033;-86
2023/10/14 11:50:30;;;;;;;1.25;0.70;;;;;;;17.97;76.87;99522.53;6145732;23;20024;-86
2023/10/14 11:52:57;;;;;;;2.60;0.90;;;;;;;18.03;77.80;99533.53;6142488;23;20017;-86
2023/10/14 11:55:27;;;;;;;3.25;0.80;;;;;;;18.00;74.55;99534.75;6119213;23;20445;-84
2023/10/14 11:57:54;;;;;;;2.28;0.95;;;;;;;17.94;73.16;99530.16;6095317;23;20799;-83
2023/10/14 12:00:21;;;;;;;1.95;0.90;;;;;;;17.95;74.28;99526.44;6091862;23;20040;-83
2023/10/14 12:02:49;;;;;;;3.47;0.90;;;;;;;17.96;76.43;99520.88;6120233;23;20594;-84
2023/10/14 12:05:17;;;;;;;1.67;0.95;;;;;;;18.00;77.84;99518.63;6120441;23;20642;-84
2023/10/14 12:07:44;;;;;;;2.25;1.05;;;;;;;17.99;78.70;99516.97;6094042;23;20030;-85
2023/10/14 12:10:11;;;;;;;1.05;0.90;;;;;;;18.00;76.44;99513.25;6096214;23;20100;-84
2023/10/14 12:12:39;;;;;;;3.75;1.05;;;;;;;17.99;79.07;99509.75;6121770;23;20052;-84
2023/10/14 12:15:09;;;;;;;3.63;1.13;;;;;;;18.07;80.60;99507.97;6144992;23;20033;-84
2023/10/14 12:17:37;;;;;;;3.08;0.90;;;;;;;18.18;79.71;99507.44;6145388;23;20052;-84